createdAt,value
2019-03-06T00:01:24.806Z,73.51
2019-03-06T00:03:55.219Z,74.22
2019-03-06T00:06:25.998Z,73.90
2019-03-06T00:08:56.347Z,74.03
2019-03-06T00:11:26.646Z,73.94
2019-03-06T00:13:57.213Z,73.91
2019-03-06T00:16:27.762Z,73.52
2019-03-06T00:18:58.214Z,73.39
2019-03-06T00:21:29.224Z,73.62
2019-03-06T00:23:59.550Z,73.31
2019-03-06T00:26:30.248Z,73.05
2019-03-06T00:29:00.646Z,72.21
2019-03-06T00:31:30.935Z,72.37
2019-03-06T00:34:01.624Z,72.33
2019-03-06T00:36:33.010Z,71.12
2019-03-06T00:39:03.910Z,71.17
2019-03-06T00:41:40.690Z,71.12
2019-03-06T00:44:11.103Z,71.46
2019-03-06T00:46:41.422Z,70.80
2019-03-06T00:49:12.071Z,70.69
2019-03-06T00:51:42.750Z,70.45
2019-03-06T00:54:13.268Z,70.73
2019-03-06T00:56:43.622Z,70.58
2019-03-06T00:59:13.933Z,70.40
2019-03-06T01:01:44.410Z,70.94
2019-03-06T01:04:15.086Z,70.99
2019-03-06T01:06:45.389Z,70.99
2019-03-06T01:09:16.656Z,70.36
2019-03-06T01:11:47.132Z,69.74
2019-03-06T01:14:17.436Z,70.15
2019-03-06T01:16:47.808Z,70.99
2019-03-06T01:19:18.428Z,71.66
2019-03-06T01:21:48.730Z,72.13
2019-03-06T01:24:19.081Z,71.92
2019-03-06T01:26:49.550Z,71.98
2019-03-06T01:29:20.316Z,71.24
2019-03-06T01:31:51.997Z,71.29
2019-03-06T01:34:44.348Z,70.26
2019-03-06T01:37:22.917Z,70.98
2019-03-06T01:40:11.104Z,71.53
2019-03-06T01:42:58.640Z,71.75
2019-03-06T01:45:28.944Z,72.15
2019-03-06T01:47:59.456Z,72.93
2019-03-06T01:50:30.176Z,72.32
2019-03-06T01:53:00.529Z,72.47
2019-03-06T01:55:31.497Z,72.49
2019-03-06T01:58:02.009Z,72.25
2019-03-06T02:00:32.579Z,72.10
2019-03-06T02:03:02.946Z,72.45
2019-03-06T02:05:33.232Z,72.53
2019-03-06T02:08:03.898Z,72.98
2019-03-06T02:10:34.432Z,73.74
2019-03-06T02:13:06.871Z,73.21
2019-03-06T02:15:37.725Z,74.01
2019-03-06T02:18:08.291Z,75.10
2019-03-06T02:20:38.632Z,74.82
2019-03-06T02:23:09.334Z,77.83
2019-03-06T02:25:40.046Z,77.84
2019-03-06T02:28:10.329Z,76.44
2019-03-06T02:30:41.168Z,76.57
2019-03-06T02:33:12.015Z,78.38
2019-03-06T02:35:42.514Z,78.63
2019-03-06T02:38:12.864Z,76.73
2019-03-06T02:40:43.535Z,77.41
2019-03-06T02:43:13.923Z,78.31
2019-03-06T02:45:44.251Z,77.07
2019-03-06T02:48:15.043Z,77.41
2019-03-06T02:50:45.331Z,77.50
2019-03-06T02:53:15.651Z,77.57
2019-03-06T02:55:46.254Z,77.44
2019-03-06T02:58:31.439Z,77.51
2019-03-06T03:01:23.457Z,78.12
2019-03-06T03:04:07.685Z,78.30
2019-03-06T03:06:44.753Z,79.12
2019-03-06T03:09:17.726Z,79.72
2019-03-06T03:11:48.147Z,77.94
2019-03-06T03:14:18.440Z,79.67
2019-03-06T03:16:49.226Z,80.61
2019-03-06T03:19:19.755Z,82.42
2019-03-06T03:21:50.137Z,81.60
2019-03-06T03:24:21.071Z,80.79
2019-03-06T03:26:51.752Z,80.28
2019-03-06T03:29:22.218Z,80.06
2019-03-06T03:31:53.007Z,79.58
2019-03-06T03:34:23.750Z,80.37
2019-03-06T03:36:54.167Z,80.12
2019-03-06T03:39:25.565Z,79.72
2019-03-06T03:41:55.895Z,79.37
2019-03-06T03:44:26.584Z,78.02
2019-03-06T03:46:57.221Z,79.32
2019-03-06T03:49:27.982Z,79.76
2019-03-06T03:51:58.888Z,81.68
2019-03-06T03:54:29.588Z,80.77
2019-03-06T03:56:59.909Z,79.19
2019-03-06T03:59:30.652Z,78.68
2019-03-06T04:02:01.313Z,80.09
2019-03-06T04:04:31.946Z,79.93
2019-03-06T04:07:02.279Z,82.55
2019-03-06T04:09:32.944Z,81.24
2019-03-06T04:12:03.575Z,82.52
2019-03-06T04:14:34.228Z,82.78
2019-03-06T04:17:04.555Z,81.37
2019-03-06T04:19:35.089Z,82.31
2019-03-06T04:22:05.934Z,81.34
2019-03-06T04:24:36.361Z,81.69
2019-03-06T04:27:06.721Z,81.50
2019-03-06T04:29:37.207Z,81.26
2019-03-06T04:32:07.561Z,81.74
2019-03-06T04:34:38.233Z,81.03
2019-03-06T04:37:08.613Z,80.77
2019-03-06T04:39:38.923Z,79.02
2019-03-06T04:42:09.341Z,78.94
2019-03-06T04:44:39.623Z,79.40
2019-03-06T04:47:09.957Z,79.75
2019-03-06T04:49:40.651Z,78.45
2019-03-06T04:52:11.001Z,78.08
2019-03-06T04:54:41.286Z,78.82
2019-03-06T04:57:11.871Z,78.66
2019-03-06T04:59:42.395Z,78.04
2019-03-06T05:02:12.793Z,77.11
2019-03-06T05:04:43.495Z,77.22
2019-03-06T05:07:13.911Z,77.46
2019-03-06T05:09:44.281Z,78.91
2019-03-06T05:12:14.658Z,79.65
2019-03-06T05:14:45.152Z,82.42
2019-03-06T05:17:35.838Z,82.30
2019-03-06T05:20:06.546Z,80.88
2019-03-06T05:22:37.005Z,79.83
2019-03-06T05:25:07.712Z,78.31
2019-03-06T05:27:38.345Z,78.18
2019-03-06T05:30:09.373Z,78.99
2019-03-06T05:32:40.047Z,80.38
2019-03-06T05:35:50.006Z,81.31
2019-03-06T05:38:24.815Z,81.09
2019-03-06T05:40:55.175Z,81.86
2019-03-06T05:43:25.897Z,81.66
2019-03-06T05:45:56.197Z,81.30
2019-03-06T05:48:26.846Z,79.03
2019-03-06T05:50:57.207Z,79.31
2019-03-06T05:53:27.928Z,79.14
2019-03-06T05:56:00.111Z,78.87
2019-03-06T05:58:30.448Z,78.46
2019-03-06T06:01:00.893Z,78.58
2019-03-06T06:03:31.583Z,78.75
2019-03-06T06:06:01.959Z,78.22
2019-03-06T06:08:32.319Z,78.49
2019-03-06T06:11:02.834Z,78.23
2019-03-06T06:13:33.148Z,77.19
2019-03-06T06:16:03.439Z,76.99
2019-03-06T06:18:34.159Z,77.96
2019-03-06T06:21:35.655Z,78.79
2019-03-06T06:24:18.414Z,78.63
2019-03-06T06:26:48.730Z,78.41
2019-03-06T06:29:19.233Z,78.12
2019-03-06T06:31:49.758Z,77.28
2019-03-06T06:34:20.260Z,76.46
2019-03-06T06:36:50.619Z,76.55
2019-03-06T06:39:21.288Z,76.54
2019-03-06T06:41:51.843Z,75.62
2019-03-06T06:44:22.164Z,74.60
2019-03-06T06:46:52.944Z,74.70
2019-03-06T06:49:23.553Z,74.77
2019-03-06T06:52:37.977Z,74.60
2019-03-06T06:55:28.588Z,74.15
2019-03-06T06:58:44.771Z,72.92
2019-03-06T07:01:51.331Z,72.96
2019-03-06T07:05:18.965Z,72.59
2019-03-06T07:08:00.742Z,71.25
2019-03-06T07:10:59.204Z,70.67
2019-03-06T07:13:52.024Z,70.51
2019-03-06T07:16:34.562Z,70.79
2019-03-06T07:19:32.931Z,71.12
2019-03-06T07:22:22.220Z,70.38
2019-03-06T07:25:07.392Z,70.22
2019-03-06T07:28:08.947Z,68.87
2019-03-06T07:30:52.083Z,68.40
2019-03-06T07:33:46.924Z,67.09
2019-03-06T07:36:34.272Z,66.77
2019-03-06T07:39:17.961Z,66.83
2019-03-06T07:41:55.586Z,67.08
2019-03-06T07:44:44.879Z,66.84
2019-03-06T07:47:39.901Z,66.19
2019-03-06T07:50:37.810Z,66.85
2019-03-06T07:54:08.374Z,67.83
2019-03-06T07:57:07.655Z,66.96
2019-03-06T07:59:38.201Z,66.17
2019-03-06T08:02:11.577Z,65.17
2019-03-06T08:04:50.832Z,64.96
2019-03-06T08:07:21.249Z,63.56
2019-03-06T08:09:52.264Z,62.36
2019-03-06T08:12:39.718Z,62.79
2019-03-06T08:15:40.047Z,60.35
2019-03-06T08:18:29.658Z,60.33
2019-03-06T08:21:17.363Z,59.73
2019-03-06T08:24:05.267Z,60.18
2019-03-06T08:26:35.709Z,60.02
2019-03-06T08:29:06.300Z,59.57
2019-03-06T08:31:55.556Z,60.24
2019-03-06T08:34:26.063Z,60.20
2019-03-06T08:36:56.650Z,60.64
2019-03-06T08:39:26.939Z,61.32
2019-03-06T08:41:57.684Z,61.32
2019-03-06T08:44:28.014Z,60.54
2019-03-06T08:47:16.951Z,60.87
2019-03-06T08:50:15.536Z,60.79
2019-03-06T08:53:10.691Z,60.29
2019-03-06T08:56:00.089Z,59.77
2019-03-06T08:58:47.897Z,59.38
2019-03-06T09:01:38.598Z,58.47
2019-03-06T09:04:23.478Z,56.77
2019-03-06T09:07:31.440Z,57.21
2019-03-06T09:10:19.513Z,56.94
2019-03-06T09:13:04.983Z,57.20
2019-03-06T09:15:57.898Z,57.66
2019-03-06T09:18:47.555Z,57.31
2019-03-06T09:21:43.142Z,56.45
2019-03-06T09:24:42.086Z,54.75
2019-03-06T09:27:30.136Z,53.67
2019-03-06T09:30:19.728Z,54.18
2019-03-06T09:33:11.752Z,53.88
2019-03-06T09:35:55.161Z,53.72
2019-03-06T09:38:43.586Z,53.99
2019-03-06T09:41:35.292Z,53.76
2019-03-06T09:44:13.981Z,54.45
2019-03-06T09:47:09.462Z,54.93
2019-03-06T09:50:13.987Z,53.76
2019-03-06T09:53:02.028Z,53.72
2019-03-06T09:55:49.704Z,54.14
2019-03-06T09:58:39.017Z,50.72
2019-03-06T10:01:37.904Z,50.62
2019-03-06T10:04:24.303Z,50.29
2019-03-06T10:07:22.515Z,50.17
2019-03-06T10:10:15.056Z,49.14
2019-03-06T10:12:51.300Z,49.83
2019-03-06T10:15:40.580Z,49.86
2019-03-06T10:18:19.728Z,49.79
2019-03-06T10:20:50.285Z,48.54
2019-03-06T10:23:20.602Z,48.76
2019-03-06T10:25:51.107Z,47.74
2019-03-06T10:28:27.918Z,48.63
2019-03-06T10:31:02.207Z,47.81
2019-03-06T10:33:26.324Z,47.10
2019-03-06T10:35:56.624Z,46.84
2019-03-06T10:38:27.305Z,46.66
2019-03-06T10:40:59.063Z,45.52
2019-03-06T10:43:29.393Z,44.61
2019-03-06T10:46:00.042Z,44.64
2019-03-06T10:48:31.048Z,42.70
2019-03-06T10:51:01.476Z,44.09
2019-03-06T10:53:40.917Z,42.87
2019-03-06T10:56:04.651Z,42.60
2019-03-06T10:58:35.200Z,42.81
2019-03-06T11:01:06.397Z,41.54
2019-03-06T11:03:52.302Z,39.40
2019-03-06T11:06:22.785Z,38.89
2019-03-06T11:08:54.717Z,38.77
2019-03-06T11:11:25.010Z,38.04
2019-03-06T11:13:55.353Z,38.06
2019-03-06T11:16:25.741Z,37.85
2019-03-06T11:18:56.506Z,35.11
2019-03-06T11:21:27.053Z,34.43
2019-03-06T11:23:57.939Z,34.25
2019-03-06T11:26:28.777Z,34.13
2019-03-06T11:28:59.377Z,34.12
2019-03-06T11:31:30.205Z,33.02
2019-03-06T11:34:01.064Z,31.14
2019-03-06T11:36:31.354Z,30.75
2019-03-06T11:39:02.091Z,30.63
2019-03-06T11:41:34.371Z,29.63
2019-03-06T11:44:04.932Z,28.76
2019-03-06T11:46:35.412Z,27.08
2019-03-06T11:49:06.700Z,27.71
2019-03-06T11:51:37.010Z,27.39
2019-03-06T11:54:07.755Z,27.62
2019-03-06T11:56:38.671Z,27.21
2019-03-06T11:59:09.122Z,27.59
2019-03-06T12:01:48.069Z,27.00
2019-03-06T12:04:13.498Z,30.35
2019-03-06T12:06:43.965Z,30.35
2019-03-06T12:09:34.058Z,30.17
2019-03-06T12:12:05.939Z,30.87
2019-03-06T12:14:36.414Z,30.62
2019-03-06T12:17:07.179Z,26.38
2019-03-06T12:19:37.685Z,25.79
2019-03-06T12:22:07.967Z,27.29
2019-03-06T12:24:39.455Z,27.29
2019-03-06T12:27:09.952Z,26.92
2019-03-06T12:29:40.274Z,27.73
2019-03-06T12:32:11.194Z,28.50
2019-03-06T12:34:41.814Z,27.92
2019-03-06T12:37:12.337Z,28.42
2019-03-06T12:39:42.667Z,27.62
2019-03-06T12:42:15.143Z,27.57
2019-03-06T12:44:45.408Z,28.05
2019-03-06T12:47:15.980Z,27.75
2019-03-06T12:49:46.403Z,27.79
2019-03-06T12:52:17.265Z,27.79
2019-03-06T12:54:47.815Z,26.76
2019-03-06T12:57:18.099Z,25.15
2019-03-06T12:59:48.919Z,25.24
2019-03-06T13:02:19.604Z,25.63
2019-03-06T13:04:49.934Z,26.17
2019-03-06T13:07:20.441Z,26.86
2019-03-06T13:09:51.045Z,26.42
2019-03-06T13:12:21.615Z,25.40
2019-03-06T13:14:52.336Z,24.18
2019-03-06T13:17:22.906Z,23.29
2019-03-06T13:19:53.671Z,24.88
2019-03-06T13:22:24.137Z,25.70
2019-03-06T13:24:54.441Z,25.75
2019-03-06T13:27:25.713Z,25.75
2019-03-06T13:29:56.123Z,23.95
2019-03-06T13:32:33.068Z,23.81
2019-03-06T13:35:05.826Z,23.81
2019-03-06T13:37:36.544Z,22.87
2019-03-06T13:40:07.115Z,22.39
2019-03-06T13:42:37.878Z,22.19
2019-03-06T13:45:08.948Z,22.17
2019-03-06T13:47:39.890Z,21.16
2019-03-06T13:50:11.668Z,20.26
2019-03-06T13:52:42.135Z,20.72
2019-03-06T13:55:12.994Z,21.95
2019-03-06T13:57:44.442Z,21.99
2019-03-06T14:00:17.214Z,22.19
2019-03-06T14:02:48.429Z,21.70
2019-03-06T14:05:20.534Z,21.49
2019-03-06T14:07:56.279Z,22.19
2019-03-06T14:10:23.795Z,22.55
2019-03-06T14:12:55.004Z,22.90
2019-03-06T14:15:25.672Z,23.53
2019-03-06T14:17:56.237Z,22.82
2019-03-06T14:20:26.559Z,23.14
2019-03-06T14:22:57.209Z,22.87
2019-03-06T14:25:27.982Z,22.75
2019-03-06T14:27:58.404Z,22.46
2019-03-06T14:30:28.830Z,22.06
2019-03-06T14:32:59.501Z,21.56
2019-03-06T14:35:30.477Z,22.12
2019-03-06T14:38:01.012Z,22.03
2019-03-06T14:40:33.285Z,21.71
2019-03-06T14:43:05.262Z,22.49
2019-03-06T14:45:35.793Z,22.33
2019-03-06T14:48:06.828Z,22.32
2019-03-06T14:50:37.153Z,21.89
2019-03-06T14:53:08.034Z,21.91
2019-03-06T14:55:38.603Z,21.85
2019-03-06T14:58:09.021Z,21.85
2019-03-06T15:00:39.727Z,22.65
2019-03-06T15:03:10.457Z,22.47
2019-03-06T15:05:47.163Z,22.54
2019-03-06T15:08:13.235Z,22.13
2019-03-06T15:10:44.023Z,21.16
2019-03-06T15:13:15.900Z,20.77
2019-03-06T15:15:46.619Z,21.35
2019-03-06T15:18:17.422Z,20.89
2019-03-06T15:20:48.091Z,20.60
2019-03-06T15:23:18.751Z,20.11
2019-03-06T15:25:49.153Z,20.08
2019-03-06T15:28:19.583Z,20.20
2019-03-06T15:30:50.671Z,20.43
2019-03-06T15:33:22.108Z,20.54
2019-03-06T15:35:52.718Z,20.37
2019-03-06T15:38:24.306Z,20.47
2019-03-06T15:40:54.630Z,20.64
2019-03-06T15:43:25.230Z,20.64
2019-03-06T15:45:56.072Z,20.85
2019-03-06T15:48:26.550Z,20.71
2019-03-06T15:50:56.877Z,20.72
2019-03-06T15:53:27.568Z,20.79
2019-03-06T15:55:58.206Z,20.49
2019-03-06T15:58:28.484Z,20.55
2019-03-06T16:00:59.351Z,21.46
2019-03-06T16:03:30.293Z,21.46
2019-03-06T16:06:00.735Z,21.09
2019-03-06T16:08:31.901Z,21.83
2019-03-06T16:11:02.554Z,22.32
2019-03-06T16:13:32.998Z,22.81
2019-03-06T16:16:04.493Z,22.78
2019-03-06T16:18:35.333Z,23.20
2019-03-06T16:21:06.190Z,23.64
2019-03-06T16:23:36.691Z,24.17
2019-03-06T16:26:07.018Z,24.11
2019-03-06T16:28:37.403Z,24.70
2019-03-06T16:31:08.244Z,24.87
2019-03-06T16:33:38.885Z,24.95
2019-03-06T16:36:09.398Z,25.26
2019-03-06T16:38:40.083Z,25.19
2019-03-06T16:41:10.647Z,25.65
2019-03-06T16:43:41.034Z,25.78
2019-03-06T16:46:11.966Z,25.62
2019-03-06T16:48:42.262Z,25.88
2019-03-06T16:51:12.803Z,27.21
2019-03-06T16:53:43.173Z,28.45
2019-03-06T16:56:13.854Z,30.19
2019-03-06T16:58:44.356Z,33.70
2019-03-06T17:01:15.018Z,34.93
2019-03-06T17:03:45.532Z,35.63
2019-03-06T17:06:16.668Z,35.39
2019-03-06T17:08:47.028Z,36.48
2019-03-06T17:11:17.675Z,36.61
2019-03-06T17:13:48.630Z,37.45
2019-03-06T17:16:19.482Z,37.81
2019-03-06T17:18:50.142Z,37.76
2019-03-06T17:21:20.890Z,38.37
2019-03-06T17:23:51.670Z,38.78
2019-03-06T17:26:22.052Z,39.26
2019-03-06T17:28:52.529Z,39.11
2019-03-06T17:31:23.329Z,39.37
2019-03-06T17:33:54.107Z,39.63
2019-03-06T17:36:24.676Z,39.99
2019-03-06T17:38:55.128Z,40.58
2019-03-06T17:41:25.829Z,41.01
2019-03-06T17:43:56.201Z,41.34
2019-03-06T17:46:26.686Z,41.04
2019-03-06T17:48:57.484Z,41.49
2019-03-06T17:51:28.324Z,41.24
2019-03-06T17:53:58.710Z,41.85
2019-03-06T17:56:29.401Z,41.78
2019-03-06T17:59:00.015Z,42.35
2019-03-06T18:01:30.505Z,42.34
2019-03-06T18:04:14.734Z,42.04
2019-03-06T18:06:45.514Z,41.41
2019-03-06T18:09:15.911Z,41.89
2019-03-06T18:11:46.464Z,42.00
2019-03-06T18:14:17.280Z,41.91
2019-03-06T18:16:48.177Z,42.34
2019-03-06T18:19:18.591Z,42.76
2019-03-06T18:21:49.389Z,42.39
2019-03-06T18:24:19.948Z,42.70
2019-03-06T18:26:50.287Z,42.67
2019-03-06T18:29:21.130Z,43.18
2019-03-06T18:31:51.506Z,43.27
2019-03-06T18:34:22.282Z,43.49
2019-03-06T18:36:52.735Z,43.91
2019-03-06T18:39:23.039Z,44.09
2019-03-06T18:41:56.385Z,44.57
2019-03-06T18:44:31.954Z,44.41
2019-03-06T18:47:02.896Z,44.22
2019-03-06T18:49:38.637Z,43.95
2019-03-06T18:52:12.109Z,43.49
2019-03-06T18:54:42.898Z,43.27
2019-03-06T18:57:13.495Z,42.94
2019-03-06T18:59:43.854Z,42.26
2019-03-06T19:02:14.203Z,42.38
2019-03-06T19:04:44.803Z,42.75
2019-03-06T19:07:15.215Z,42.48
2019-03-06T19:09:47.992Z,41.85
2019-03-06T19:12:19.801Z,41.11
2019-03-06T19:14:52.754Z,40.65
2019-03-06T19:17:23.377Z,40.93
2019-03-06T19:19:55.285Z,41.02
2019-03-06T19:22:27.281Z,40.68
2019-03-06T19:24:58.156Z,40.54
2019-03-06T19:27:28.947Z,41.74
2019-03-06T19:29:59.354Z,42.22
2019-03-06T19:32:29.780Z,43.10
2019-03-06T19:35:00.616Z,44.02
2019-03-06T19:37:31.282Z,44.57
2019-03-06T19:40:02.136Z,44.57
2019-03-06T19:42:34.118Z,45.35
2019-03-06T19:45:06.855Z,45.86
2019-03-06T19:47:38.402Z,45.99
2019-03-06T19:50:14.602Z,46.34
2019-03-06T19:52:45.234Z,46.23
2019-03-06T19:55:17.132Z,46.56
2019-03-06T19:57:58.962Z,46.39
2019-03-06T20:00:29.949Z,46.23
2019-03-06T20:03:00.864Z,46.02
2019-03-06T20:05:34.688Z,46.37
2019-03-06T20:08:08.362Z,46.29
2019-03-06T20:10:39.613Z,46.50
2019-03-06T20:13:10.794Z,46.37
2019-03-06T20:15:41.118Z,46.00
2019-03-06T20:18:12.188Z,46.41
2019-03-06T20:20:42.869Z,46.59
2019-03-06T20:23:13.144Z,46.06
2019-03-06T20:25:43.562Z,47.01
2019-03-06T20:28:14.293Z,48.04
2019-03-06T20:30:44.857Z,48.55
2019-03-06T20:33:15.414Z,48.99
2019-03-06T20:35:46.304Z,49.22
2019-03-06T20:38:16.771Z,49.26
2019-03-06T20:40:47.555Z,49.85
2019-03-06T20:43:17.839Z,50.11
2019-03-06T20:45:48.198Z,50.13
2019-03-06T20:48:19.115Z,50.54
2019-03-06T20:50:49.403Z,50.34
2019-03-06T20:53:19.678Z,49.79
2019-03-06T20:55:50.176Z,50.49
2019-03-06T20:58:20.603Z,50.72
2019-03-06T21:00:57.345Z,50.77
2019-03-06T21:03:35.099Z,50.55
2019-03-06T21:06:06.270Z,50.56
2019-03-06T21:08:36.599Z,49.99
2019-03-06T21:11:07.321Z,48.84
2019-03-06T21:13:37.710Z,48.12
2019-03-06T21:16:08.407Z,48.07
2019-03-06T21:18:39.103Z,47.45
2019-03-06T21:21:09.685Z,46.86
2019-03-06T21:23:40.306Z,47.03
2019-03-06T21:26:10.728Z,46.85
2019-03-06T21:28:41.119Z,46.57
2019-03-06T21:31:11.831Z,46.33
2019-03-06T21:33:42.620Z,46.95
2019-03-06T21:36:13.041Z,46.99
2019-03-06T21:38:43.484Z,46.65
2019-03-06T21:41:15.447Z,46.87
2019-03-06T21:43:45.883Z,46.90
2019-03-06T21:46:16.733Z,47.57
2019-03-06T21:48:47.030Z,47.34
2019-03-06T21:51:17.859Z,48.46
2019-03-06T21:53:48.604Z,48.32
2019-03-06T21:56:18.909Z,48.67
2019-03-06T21:58:49.397Z,50.02
2019-03-06T22:01:20.037Z,51.40
2019-03-06T22:03:50.388Z,51.58
2019-03-06T22:06:20.794Z,51.60
2019-03-06T22:08:51.402Z,51.62
2019-03-06T22:11:21.768Z,52.42
2019-03-06T22:13:52.446Z,52.76
2019-03-06T22:16:23.315Z,52.42
2019-03-06T22:18:53.739Z,52.26
2019-03-06T22:21:24.168Z,53.12
2019-03-06T22:23:54.530Z,53.55
2019-03-06T22:26:25.140Z,53.85
2019-03-06T22:28:55.765Z,53.31
2019-03-06T22:31:26.049Z,54.31
2019-03-06T22:33:56.470Z,54.77
2019-03-06T22:36:27.204Z,54.34
2019-03-06T22:38:57.681Z,53.70
2019-03-06T22:41:28.299Z,54.44
2019-03-06T22:44:00.181Z,55.34
2019-03-06T22:46:31.060Z,56.52
2019-03-06T22:49:01.436Z,57.36
2019-03-06T22:51:31.719Z,57.37
2019-03-06T22:54:02.203Z,57.62
2019-03-06T22:56:32.879Z,57.26
2019-03-06T22:59:03.411Z,57.49
2019-03-06T23:01:38.809Z,57.04
2019-03-06T23:04:09.575Z,56.43
2019-03-06T23:06:40.314Z,56.80
2019-03-06T23:09:12.312Z,57.50
2019-03-06T23:11:43.101Z,58.46
2019-03-06T23:14:14.095Z,58.80
2019-03-06T23:16:44.402Z,58.71
2019-03-06T23:19:14.789Z,58.32
2019-03-06T23:21:45.067Z,58.06
2019-03-06T23:24:15.770Z,58.13
2019-03-06T23:26:46.589Z,58.03
2019-03-06T23:29:16.979Z,57.00
2019-03-06T23:31:50.366Z,56.67
2019-03-06T23:34:20.586Z,57.36
2019-03-06T23:36:50.967Z,57.58
2019-03-06T23:39:21.334Z,57.92
2019-03-06T23:41:51.871Z,58.80
2019-03-06T23:44:22.389Z,58.09
2019-03-06T23:46:53.562Z,58.22
2019-03-06T23:49:23.998Z,58.52
2019-03-06T23:52:02.941Z,58.53
2019-03-06T23:54:33.845Z,58.03
2019-03-06T23:57:04.316Z,58.69
2019-03-06T23:59:34.811Z,57.82
